Time;durP1;ratioP1;P1;durP2;ratioP2;P2;SDS_P1;SDS_P2;PMS_P1;PMS_P2;Temp;Humidity;BMP_temperature;BMP_pressure;BME280_temperature;BME280_humidity;BME280_pressure;Samples;Min_cycle;Max_cycle;Signal;HPM_P1;HPM_P2
2020/07/14 00:00:15;;;;;;;3.8;1.8;;;;;;;14.99;73.22656;940.0703;;;;
2020/07/14 00:02:41;;;;;;;4.3;1.9;;;;;;;14.91;73.43164;940.0891;;;;
2020/07/14 00:05:06;;;;;;;4.3;1.8;;;;;;;14.89;73.68066;940.0652;;;;
2020/07/14 00:07:31;;;;;;;3;1.6;;;;;;;14.85;73.86914;940.0156;;;;
2020/07/14 00:09:57;;;;;;;3.8;1.8;;;;;;;14.71;73.86914;939.9927;;;;
2020/07/14 00:12:22;;;;;;;4.2;1.7;;;;;;;14.59;74.41406;939.8926;;;;
2020/07/14 00:14:47;;;;;;;2.9;1.8;;;;;;;14.56;74.50195;939.992;;;;
2020/07/14 00:17:12;;;;;;;3.1;1.6;;;;;;;14.58;74.77051;940.0369;;;;
2020/07/14 00:19:39;;;;;;;3.3;2;;;;;;;14.57;74.43555;940.0023;;;;
2020/07/14 00:22:09;;;;;;;3;1.8;;;;;;;14.58;74.34375;940.0112;;;;
2020/07/14 00:24:35;;;;;;;3.3;1.9;;;;;;;14.49;74.57031;940.0098;;;;
2020/07/14 00:27:00;;;;;;;3.7;2;;;;;;;14.53;74.75098;939.9753;;;;
2020/07/14 00:29:27;;;;;;;5;1.9;;;;;;;14.54;74.82031;939.9553;;;;
2020/07/14 00:31:52;;;;;;;4.1;2.3;;;;;;;14.53;74.84277;939.8784;;;;
2020/07/14 00:34:17;;;;;;;4.1;2.2;;;;;;;14.46;74.8418;939.9114;;;;
2020/07/14 00:36:43;;;;;;;3.5;2.2;;;;;;;14.42;75.56152;939.8887;;;;
2020/07/14 00:39:09;;;;;;;3.5;2.2;;;;;;;14.44;75.35742;939.8826;;;;
2020/07/14 00:41:36;;;;;;;5.5;2.1;;;;;;;14.44;75.32129;939.837;;;;
2020/07/14 00:44:01;;;;;;;3;2;;;;;;;14.43;75.34473;939.8639;;;;
2020/07/14 00:46:26;;;;;;;4.9;2.3;;;;;;;14.41;75.13281;939.7795;;;;
2020/07/14 00:48:55;;;;;;;5.4;2.2;;;;;;;14.28;75.70898;939.788;;;;
2020/07/14 00:51:20;;;;;;;5.2;2.2;;;;;;;14.22;76.0918;939.7809;;;;
2020/07/14 00:53:45;;;;;;;3.8;1.9;;;;;;;14.24;76.11621;939.7559;;;;
2020/07/14 00:56:10;;;;;;;11.9;3.1;;;;;;;14.28;75.68652;939.7455;;;;
2020/07/14 00:58:35;;;;;;;4.6;1.8;;;;;;;14.3;75.41309;939.731;;;;
2020/07/14 01:01:03;;;;;;;3.6;2;;;;;;;14.27;75.56934;939.7142;;;;
2020/07/14 01:03:28;;;;;;;3.5;2;;;;;;;14.25;76.03906;939.6686;;;;
2020/07/14 01:05:54;;;;;;;5.8;2.3;;;;;;;14.18;75.9668;939.6541;;;;
2020/07/14 01:08:19;;;;;;;3.7;1.9;;;;;;;14.1;76.03516;939.6511;;;;
2020/07/14 01:10:53;;;;;;;5.8;2.3;;;;;;;14.1;76.55273;939.6102;;;;
2020/07/14 01:13:18;;;;;;;5;2.2;;;;;;;14.08;76.39844;939.6431;;;;
2020/07/14 01:15:55;;;;;;;3.5;2;;;;;;;14.06;76.48926;939.6744;;;;
2020/07/14 01:18:22;;;;;;;4.7;1.9;;;;;;;13.96;76.35547;939.6214;;;;
2020/07/14 01:20:53;;;;;;;4.2;1.7;;;;;;;13.94;76.31934;939.6078;;;;
2020/07/14 01:23:18;;;;;;;2.9;1.7;;;;;;;13.91;76.2207;939.6086;;;;
2020/07/14 01:25:44;;;;;;;4.6;1.9;;;;;;;13.82;76.2627;939.6264;;;;
2020/07/14 01:28:10;;;;;;;3.3;1.9;;;;;;;13.73;76.68164;939.5893;;;;
2020/07/14 01:30:38;;;;;;;5.4;2.2;;;;;;;13.69;76.91895;939.5461;;;;
2020/07/14 01:33:04;;;;;;;8.3;2.6;;;;;;;13.61;77.03125;939.5139;;;;
2020/07/14 01:35:29;;;;;;;3.2;2;;;;;;;13.57;77.0918;939.4194;;;;
2020/07/14 01:37:54;;;;;;;4;2.2;;;;;;;13.51;77.37012;939.437;;;;
2020/07/14 01:40:19;;;;;;;3.4;1.7;;;;;;;13.5;77.41211;939.4506;;;;
2020/07/14 01:42:44;;;;;;;4.8;2.1;;;;;;;13.46;77.40625;939.4115;;;;
2020/07/14 01:45:13;;;;;;;4.4;2.3;;;;;;;13.32;78.12695;939.4526;;;;
2020/07/14 01:47:39;;;;;;;3.9;2.1;;;;;;;13.16;78.63965;939.4903;;;;
2020/07/14 01:50:04;;;;;;;5.6;2.5;;;;;;;13.11;78.97461;939.4415;;;;
2020/07/14 01:52:29;;;;;;;4.3;2.1;;;;;;;13.14;79.09375;939.4934;;;;
2020/07/14 01:54:56;;;;;;;5.3;2.1;;;;;;;13.1;78.88086;939.4127;;;;
2020/07/14 01:57:21;;;;;;;3;2.2;;;;;;;13.13;78.54297;939.3903;;;;
2020/07/14 01:59:46;;;;;;;3.4;2.2;;;;;;;13.16;78.4082;939.3767;;;;
2020/07/14 02:02:12;;;;;;;5.9;2.3;;;;;;;13.19;78.43945;939.3987;;;;
2020/07/14 02:04:37;;;;;;;3.2;2.3;;;;;;;13.25;78.4834;939.3983;;;;
2020/07/14 02:07:02;;;;;;;4.3;2;;;;;;;13.28;77.82324;939.447;;;;
2020/07/14 02:09:29;;;;;;;3.4;2.2;;;;;;;13.26;77.89941;939.447;;;;
2020/07/14 02:11:54;;;;;;;13.3;3.1;;;;;;;13.22;78.14355;939.407;;;;
2020/07/14 02:14:19;;;;;;;5.3;2.3;;;;;;;13.1;78.67383;939.4727;;;;
2020/07/14 02:16:47;;;;;;;4.6;2.3;;;;;;;13.09;78.56934;939.4422;;;;
2020/07/14 02:19:12;;;;;;;10.9;3;;;;;;;13.07;78.65918;939.3143;;;;
2020/07/14 02:21:38;;;;;;;3.2;2.2;;;;;;;13.06;78.63281;939.4278;;;;
2020/07/14 02:24:03;;;;;;;3.4;2.3;;;;;;;13.07;78.77246;939.4127;;;;
2020/07/14 02:26:28;;;;;;;4.2;2;;;;;;;13.1;78.76758;939.3703;;;;
2020/07/14 02:28:53;;;;;;;3.9;2.3;;;;;;;13.15;78.70703;939.3792;;;;
2020/07/14 02:31:18;;;;;;;4.4;2.3;;;;;;;13.2;78.56543;939.4059;;;;
2020/07/14 02:33:46;;;;;;;3.1;1.9;;;;;;;13.16;78.24707;939.3728;;;;
2020/07/14 02:36:11;;;;;;;2.9;2;;;;;;;13.14;78.34766;939.3272;;;;
2020/07/14 02:38:37;;;;;;;4.3;2.1;;;;;;;13.1;78.55957;939.3743;;;;
2020/07/14 02:41:10;;;;;;;4.5;2;;;;;;;13.08;78.625;939.2952;;;;
2020/07/14 02:43:34;;;;;;;3.4;1.9;;;;;;;13.07;78.71484;939.3647;;;;
2020/07/14 02:46:00;;;;;;;3.6;2.1;;;;;;;13.03;78.59375;939.3862;;;;
2020/07/14 02:48:25;;;;;;;5.3;2.4;;;;;;;13.02;78.76465;939.3535;;;;
2020/07/14 02:50:52;;;;;;;3;2.2;;;;;;;12.99;78.75586;939.353;;;;
2020/07/14 02:53:17;;;;;;;2.8;2.2;;;;;;;12.87;79.02344;939.3424;;;;
2020/07/14 02:55:44;;;;;;;4.1;2.2;;;;;;;12.75;79.59863;939.3306;;;;
2020/07/14 02:58:10;;;;;;;2.8;2.2;;;;;;;12.76;79.37109;939.3954;;;;
2020/07/14 03:00:50;;;;;;;3.3;1.9;;;;;;;12.81;79.23047;939.3787;;;;
2020/07/14 03:03:15;;;;;;;5.4;2.3;;;;;;;12.84;79.14355;939.2704;;;;
2020/07/14 03:05:40;;;;;;;5.1;2.4;;;;;;;12.82;79.56445;939.3719;;;;
2020/07/14 03:08:05;;;;;;;3.3;2.1;;;;;;;12.67;79.84766;939.3831;;;;
2020/07/14 03:10:34;;;;;;;2.2;2;;;;;;;12.44;80.42383;939.3102;;;;
2020/07/14 03:13:00;;;;;;;2.8;2;;;;;;;12.42;81.21191;939.2678;;;;
2020/07/14 03:15:30;;;;;;;4.3;2;;;;;;;12.49;80.50293;939.3488;;;;
2020/07/14 03:17:55;;;;;;;2.4;2;;;;;;;12.49;80.33105;939.2872;;;;
2020/07/14 03:20:22;;;;;;;2.8;2;;;;;;;12.48;80.40918;939.2608;;;;
2020/07/14 03:22:48;;;;;;;4.2;2.4;;;;;;;12.43;80.73242;939.2167;;;;
2020/07/14 03:25:13;;;;;;;11;3.1;;;;;;;12.47;80.63574;939.1266;;;;
2020/07/14 03:27:40;;;;;;;9.6;2.9;;;;;;;12.51;80.28809;939.1506;;;;
2020/07/14 03:30:05;;;;;;;3.6;2.2;;;;;;;12.55;79.97363;939.2506;;;;
2020/07/14 03:32:31;;;;;;;3.7;2.5;;;;;;;12.53;80.02832;939.2522;;;;
2020/07/14 03:34:56;;;;;;;5;2.7;;;;;;;12.42;80.55859;939.2183;;;;
2020/07/14 03:37:24;;;;;;;5;2.8;;;;;;;12.44;80.43555;939.2296;;;;
2020/07/14 03:39:52;;;;;;;5.6;2.5;;;;;;;12.34;80.77246;939.2647;;;;
2020/07/14 03:42:18;;;;;;;9;3.3;;;;;;;12.31;81.03125;939.2958;;;;
2020/07/14 03:44:43;;;;;;;4.5;2.6;;;;;;;12.37;80.7207;939.2633;;;;
2020/07/14 03:47:13;;;;;;;4.8;2.5;;;;;;;12.42;80.4209;939.2478;;;;
2020/07/14 03:49:35;;;;;;;6.5;2.6;;;;;;;12.4;80.54199;939.2051;;;;
2020/07/14 03:52:00;;;;;;;4.9;2.4;;;;;;;12.4;80.67969;939.2187;;;;
2020/07/14 03:54:28;;;;;;;4.2;2.3;;;;;;;12.39;80.97559;939.2162;;;;
2020/07/14 03:56:53;;;;;;;4.3;2.3;;;;;;;12.51;80.82715;939.2313;;;;
2020/07/14 03:59:19;;;;;;;4.7;2.4;;;;;;;12.55;81.01758;939.2498;;;;
2020/07/14 04:02:32;;;;;;;5.8;2.8;;;;;;;12.63;79.94336;939.2233;;;;
2020/07/14 04:04:57;;;;;;;9.8;3;;;;;;;12.69;79.72363;939.2433;;;;
2020/07/14 04:07:22;;;;;;;8.8;2.9;;;;;;;12.71;79.60059;939.2578;;;;
2020/07/14 04:09:49;;;;;;;11.3;3;;;;;;;12.72;79.35352;939.2523;;;;
2020/07/14 04:12:16;;;;;;;4.2;2.6;;;;;;;12.71;79.47461;939.1379;;;;
2020/07/14 04:17:07;;;;;;;6.9;2.5;;;;;;;12.67;79.75586;939.1882;;;;
2020/07/14 04:19:32;;;;;;;2.7;2.2;;;;;;;12.63;80.17285;939.137;;;;
2020/07/14 04:21:58;;;;;;;5.4;2.3;;;;;;;12.64;80.16309;939.1554;;;;
2020/07/14 04:24:23;;;;;;;3.5;2.1;;;;;;;12.64;80.17383;939.1386;;;;
2020/07/14 04:26:49;;;;;;;14.6;3.4;;;;;;;12.68;80.07715;939.1252;;;;
2020/07/14 04:29:16;;;;;;;17;3.9;;;;;;;12.76;79.94531;939.186;;;;
2020/07/14 04:31:41;;;;;;;4.6;2.2;;;;;;;12.79;79.65137;939.1789;;;;
2020/07/14 04:34:06;;;;;;;6.9;2.8;;;;;;;12.87;80.11426;939.1945;;;;
2020/07/14 04:36:33;;;;;;;4.7;2.5;;;;;;;13.03;79.96973;939.2175;;;;
2020/07/14 04:38:57;;;;;;;5;2.3;;;;;;;13.16;79.36328;939.1666;;;;
2020/07/14 04:41:24;;;;;;;6.3;2.4;;;;;;;13.18;78.18359;939.2028;;;;
2020/07/14 04:43:49;;;;;;;4.5;2.8;;;;;;;13.17;78.47852;939.2089;;;;
2020/07/14 04:46:15;;;;;;;5.9;3;;;;;;;13.12;78.48242;939.2216;;;;
2020/07/14 04:48:40;;;;;;;8.9;3.1;;;;;;;13.18;78.06836;939.1772;;;;
2020/07/14 04:51:08;;;;;;;6.4;3.5;;;;;;;13.26;77.87598;939.2799;;;;
2020/07/14 04:53:34;;;;;;;6.2;4.4;;;;;;;13.4;77.28027;939.2823;;;;
2020/07/14 04:55:59;;;;;;;4.8;3.7;;;;;;;13.53;77.05078;939.2211;;;;
2020/07/14 04:58:24;;;;;;;9;3.1;;;;;;;13.62;76.43457;939.2701;;;;
2020/07/14 05:00:55;;;;;;;12.2;3;;;;;;;13.67;76.56934;939.2277;;;;
2020/07/14 05:03:22;;;;;;;14.5;3.3;;;;;;;13.77;76.48242;939.1675;;;;
2020/07/14 05:05:47;;;;;;;6.7;2.5;;;;;;;13.84;75.81836;939.162;;;;
2020/07/14 05:08:14;;;;;;;6;2.4;;;;;;;13.87;75.26953;939.134;;;;
2020/07/14 05:10:40;;;;;;;9.9;2.4;;;;;;;13.88;75.3877;939.1028;;;;
2020/07/14 05:13:07;;;;;;;7.3;2.8;;;;;;;13.95;75.61719;939.1066;;;;
2020/07/14 05:15:36;;;;;;;17.5;3.6;;;;;;;14.23;75.14746;939.0536;;;;
2020/07/14 05:18:03;;;;;;;6.9;2.2;;;;;;;14.65;73.19141;939.0848;;;;
2020/07/14 05:20:28;;;;;;;5.9;2.3;;;;;;;15.02;72.03125;939.0536;;;;
2020/07/14 05:22:53;;;;;;;5.9;2.2;;;;;;;15.27;70.54883;939.0209;;;;
2020/07/14 05:25:22;;;;;;;6.4;2.2;;;;;;;15.54;70.25684;938.9292;;;;
2020/07/14 05:27:46;;;;;;;6.8;2.1;;;;;;;15.74;70.06836;938.9448;;;;
2020/07/14 05:30:12;;;;;;;6.6;2.2;;;;;;;16.13;68.5498;938.98;;;;
2020/07/14 05:32:38;;;;;;;12.2;2.5;;;;;;;16.61;66.53906;938.9324;;;;
2020/07/14 05:35:04;;;;;;;11.7;2.8;;;;;;;17.51;64.98145;938.8752;;;;
2020/07/14 05:37:31;;;;;;;20;2.8;;;;;;;18.45;60.81934;938.9311;;;;
2020/07/14 05:39:58;;;;;;;9.9;2;;;;;;;18.77;58.30273;938.8984;;;;
2020/07/14 05:42:25;;;;;;;11;2.2;;;;;;;19.11;57.62598;938.7818;;;;
2020/07/14 05:44:51;;;;;;;10.1;2.2;;;;;;;19.62;55.60547;938.8613;;;;
2020/07/14 05:47:19;;;;;;;7.8;2.2;;;;;;;19.92;54.58301;938.7605;;;;
2020/07/14 05:49:44;;;;;;;11.3;2.4;;;;;;;20;54.14941;938.7446;;;;
2020/07/14 05:52:10;;;;;;;7.2;1.7;;;;;;;20.24;53.54785;938.7383;;;;
2020/07/14 05:54:35;;;;;;;12.9;2.2;;;;;;;20.83;51.12891;938.738;;;;
2020/07/14 05:57:02;;;;;;;5.6;1.6;;;;;;;20.55;51.54102;938.6638;;;;
2020/07/14 05:59:27;;;;;;;10.5;2.2;;;;;;;20.64;52.10059;938.6568;;;;
2020/07/14 06:01:55;;;;;;;6.5;1.5;;;;;;;21.15;50.25293;938.6763;;;;
2020/07/14 06:04:20;;;;;;;8.6;2.3;;;;;;;21.54;48.62402;938.6445;;;;
2020/07/14 06:06:48;;;;;;;5.8;1.8;;;;;;;21.35;49.33008;938.6347;;;;
2020/07/14 06:09:13;;;;;;;14.3;2.2;;;;;;;21.53;48.44727;938.6433;;;;
2020/07/14 06:11:39;;;;;;;5.7;1.6;;;;;;;21.88;47.73633;938.6379;;;;
2020/07/14 06:14:04;;;;;;;6.3;1.8;;;;;;;21.95;48.27051;938.6187;;;;
2020/07/14 06:16:31;;;;;;;4.5;1.5;;;;;;;22.36;46.19238;938.6408;;;;
2020/07/14 06:18:56;;;;;;;11.4;2.4;;;;;;;21.83;48.49121;938.6282;;;;
2020/07/14 06:21:22;;;;;;;3.2;1.6;;;;;;;21.78;48.47461;938.5778;;;;
2020/07/14 06:23:47;;;;;;;3;1.2;;;;;;;21.43;48.6582;938.5583;;;;
2020/07/14 06:26:16;;;;;;;5.5;1.6;;;;;;;21.68;48.89648;938.5513;;;;
2020/07/14 06:28:41;;;;;;;1.9;1.2;;;;;;;22.56;45.66016;938.5303;;;;
2020/07/14 06:31:11;;;;;;;7.6;1.9;;;;;;;24.16;42.55078;938.4561;;;;
2020/07/14 06:33:37;;;;;;;3.6;1.3;;;;;;;24.62;40.55566;938.4824;;;;
2020/07/14 06:36:02;;;;;;;9;1.6;;;;;;;25.26;39.4209;938.4242;;;;
2020/07/14 06:38:27;;;;;;;5;1.3;;;;;;;25.83;39.26953;938.4174;;;;
2020/07/14 06:40:53;;;;;;;2.9;1;;;;;;;26.47;39.39746;938.4515;;;;
2020/07/14 06:43:18;;;;;;;4.7;1;;;;;;;26.32;39.84668;938.4406;;;;
2020/07/14 06:45:48;;;;;;;3.1;1.1;;;;;;;26.19;37.68164;938.3409;;;;
2020/07/14 06:48:14;;;;;;;2.3;1.1;;;;;;;27.3;37.24023;938.2999;;;;
2020/07/14 06:50:40;;;;;;;1.7;1;;;;;;;27.49;35.20508;938.3244;;;;
2020/07/14 06:53:05;;;;;;;1.6;1.1;;;;;;;27.33;33.50684;938.2832;;;;
2020/07/14 06:55:30;;;;;;;3.1;1.1;;;;;;;27.83;33.73438;938.2519;;;;
2020/07/14 06:57:56;;;;;;;3.4;1.2;;;;;;;28.2;35.2832;938.2548;;;;
2020/07/14 07:00:23;;;;;;;4.2;1.3;;;;;;;29.6;33.78418;938.2479;;;;
2020/07/14 07:02:48;;;;;;;1.6;0.9;;;;;;;30.21;30.78613;938.2095;;;;
2020/07/14 07:05:13;;;;;;;2.4;0.9;;;;;;;29.26;33.46094;938.2084;;;;
2020/07/14 07:07:41;;;;;;;1.6;1;;;;;;;30.15;31.90332;938.1902;;;;
2020/07/14 07:10:06;;;;;;;1.3;0.9;;;;;;;30.01;30.93848;938.1732;;;;
2020/07/14 07:12:33;;;;;;;1.3;0.9;;;;;;;27.24;37.90039;938.2075;;;;
2020/07/14 07:16:45;;;;;;;2.7;1;;;;;;;27.41;37.59375;938.135;;;;
2020/07/14 07:19:13;;;;;;;3.1;0.8;;;;;;;28.18;36.26855;938.0673;;;;
2020/07/14 07:23:07;;;;;;;2.8;1.1;;;;;;;29.51;33.68164;938.0634;;;;
2020/07/14 07:25:32;;;;;;;1.8;1.1;;;;;;;27.86;34.3418;938.0828;;;;
2020/07/14 07:28:00;;;;;;;1.5;1;;;;;;;28.41;35.95313;938.0266;;;;
2020/07/14 07:30:28;;;;;;;2.3;1.1;;;;;;;28.54;35.06055;937.9747;;;;
2020/07/14 07:32:56;;;;;;;2.7;1.1;;;;;;;28.46;33.60352;937.9751;;;;
2020/07/14 07:35:25;;;;;;;2.8;1;;;;;;;28.62;33.08008;937.9301;;;;
2020/07/14 07:38:06;;;;;;;1.6;0.9;;;;;;;28.97;33.98633;937.918;;;;
2020/07/14 07:40:32;;;;;;;1.3;1;;;;;;;30.27;31.07617;937.9135;;;;
2020/07/14 07:42:57;;;;;;;2.2;0.9;;;;;;;31.93;29.45313;937.9355;;;;
2020/07/14 07:45:28;;;;;;;2.6;1.1;;;;;;;31.89;29.40234;937.8825;;;;
2020/07/14 07:47:53;;;;;;;1.1;0.7;;;;;;;31.97;31.12012;937.9481;;;;
2020/07/14 07:50:26;;;;;;;3.5;1.2;;;;;;;31.36;31.48633;937.8826;;;;
2020/07/14 07:52:52;;;;;;;2.1;1.1;;;;;;;31.15;29.94043;937.8928;;;;
2020/07/14 07:55:21;;;;;;;2.5;1.3;;;;;;;31.68;30.49023;937.9165;;;;
2020/07/14 07:57:45;;;;;;;4.4;1.2;;;;;;;30.7;30.74707;937.9021;;;;
2020/07/14 08:00:29;;;;;;;4.2;1.3;;;;;;;30.29;32.94043;937.8914;;;;
2020/07/14 08:02:50;;;;;;;3.7;1.2;;;;;;;30.69;33.7334;937.8426;;;;
2020/07/14 08:05:15;;;;;;;3.3;0.9;;;;;;;31.43;31.55176;937.8271;;;;
2020/07/14 08:07:41;;;;;;;3.1;1.1;;;;;;;32;29.01465;937.7839;;;;
2020/07/14 08:10:06;;;;;;;2.4;1.1;;;;;;;32.79;28.54785;937.7856;;;;
2020/07/14 08:12:31;;;;;;;3.6;1;;;;;;;33.76;25.85449;937.8231;;;;
2020/07/14 08:14:58;;;;;;;3.3;1;;;;;;;34.25;27.49609;937.7495;;;;
2020/07/14 08:17:23;;;;;;;2.2;1;;;;;;;34.5;27.36621;937.757;;;;
2020/07/14 08:19:50;;;;;;;1.5;1;;;;;;;33.93;25.52637;937.7514;;;;
2020/07/14 08:22:15;;;;;;;2.4;1;;;;;;;33.46;27.45996;937.7145;;;;
2020/07/14 08:24:42;;;;;;;1.7;0.9;;;;;;;32.68;28.85254;937.6661;;;;
2020/07/14 08:27:07;;;;;;;1.2;0.8;;;;;;;32.41;30.11914;937.6627;;;;
2020/07/14 08:29:34;;;;;;;3.2;1;;;;;;;32.68;27.31738;937.6431;;;;
2020/07/14 08:31:59;;;;;;;2.5;0.9;;;;;;;32.55;27.98047;937.6763;;;;
2020/07/14 08:34:25;;;;;;;1.8;1;;;;;;;32.82;27.19336;937.6707;;;;
2020/07/14 08:36:50;;;;;;;2.9;1;;;;;;;33.04;29.65723;937.6111;;;;
2020/07/14 08:39:31;;;;;;;1.4;0.9;;;;;;;33.04;27.60254;937.6194;;;;
2020/07/14 08:41:40;;;;;;;3;0.7;;;;;;;33.69;27.4375;937.555;;;;
2020/07/14 08:44:06;;;;;;;1.3;0.7;;;;;;;34.21;28.14355;937.5773;;;;
2020/07/14 08:46:31;;;;;;;2.1;0.8;;;;;;;35.65;24.20996;937.5251;;;;
2020/07/14 08:48:57;;;;;;;1.4;0.6;;;;;;;34.94;24.53418;937.4704;;;;
2020/07/14 08:51:22;;;;;;;1.9;0.7;;;;;;;34.53;24.72852;937.4611;;;;
2020/07/14 08:53:48;;;;;;;3.1;0.8;;;;;;;34.26;24.29199;937.4277;;;;
2020/07/14 08:56:15;;;;;;;1.6;0.8;;;;;;;33.85;24.86035;937.3858;;;;
2020/07/14 08:58:40;;;;;;;2.9;0.8;;;;;;;34.49;26.89551;937.3984;;;;
2020/07/14 09:01:05;;;;;;;1.6;0.8;;;;;;;35.16;24.67773;937.4012;;;;
2020/07/14 09:03:32;;;;;;;2.2;0.7;;;;;;;33.91;25.05664;937.3488;;;;
2020/07/14 09:05:57;;;;;;;1.5;0.7;;;;;;;32.62;27.18164;937.3225;;;;
2020/07/14 09:08:27;;;;;;;2.1;0.8;;;;;;;30.9;29.13477;937.3546;;;;
2020/07/14 09:11:00;;;;;;;3.7;0.9;;;;;;;29.46;31.11523;937.3091;;;;
2020/07/14 09:13:25;;;;;;;2.2;0.9;;;;;;;28.17;35.24512;937.3345;;;;
2020/07/14 09:15:50;;;;;;;3.5;0.8;;;;;;;27.55;35.75391;937.3422;;;;
2020/07/14 09:18:15;;;;;;;6.3;1.2;;;;;;;26.9;38.38086;937.3056;;;;
2020/07/14 09:20:41;;;;;;;3.6;1.1;;;;;;;26.31;39.43066;937.2711;;;;
2020/07/14 09:23:06;;;;;;;3.6;1;;;;;;;26.48;39.8252;937.2363;;;;
2020/07/14 09:25:32;;;;;;;6;1.5;;;;;;;27.6;40.8623;937.1458;;;;
2020/07/14 09:27:57;;;;;;;3.1;1;;;;;;;28.87;36.53711;937.1561;;;;
2020/07/14 09:30:28;;;;;;;3.2;0.9;;;;;;;29.95;36.29102;937.1303;;;;
2020/07/14 09:32:54;;;;;;;2.4;0.8;;;;;;;30.31;33.24023;937.0161;;;;
2020/07/14 09:35:22;;;;;;;2.7;0.9;;;;;;;28.98;34.04688;937.0807;;;;
2020/07/14 09:37:47;;;;;;;1.5;0.8;;;;;;;28.27;37.20117;937.058;;;;
2020/07/14 09:40:12;;;;;;;2.3;1;;;;;;;27.65;38.63574;937.0783;;;;
2020/07/14 09:42:37;;;;;;;3.2;0.8;;;;;;;27.61;38.22754;937.0045;;;;
2020/07/14 09:45:03;;;;;;;3;1;;;;;;;27.46;40.50488;937.0012;;;;
2020/07/14 09:47:28;;;;;;;2.8;1;;;;;;;27.95;39.76563;936.9871;;;;
2020/07/14 09:49:53;;;;;;;1.8;0.8;;;;;;;28.28;37.27539;936.8873;;;;
2020/07/14 09:52:21;;;;;;;3.1;0.9;;;;;;;29.17;36.97852;936.8976;;;;
2020/07/14 09:54:46;;;;;;;2.1;0.8;;;;;;;29.63;39.23438;936.8089;;;;
2020/07/14 09:57:11;;;;;;;2.3;1;;;;;;;29.82;36.18555;936.8625;;;;
2020/07/14 09:59:41;;;;;;;2.1;0.9;;;;;;;29.62;33.85742;936.8283;;;;
2020/07/14 10:02:06;;;;;;;2.4;0.8;;;;;;;29.26;36.17578;936.7699;;;;
2020/07/14 10:04:32;;;;;;;2.2;0.9;;;;;;;29.08;35.60254;936.7438;;;;
2020/07/14 10:06:59;;;;;;;1.2;0.8;;;;;;;29.37;36.36426;936.6726;;;;
2020/07/14 10:09:24;;;;;;;2.2;0.9;;;;;;;29.34;36.13477;936.6503;;;;
2020/07/14 10:11:49;;;;;;;2.6;0.9;;;;;;;29.48;36.5752;936.6408;;;;
2020/07/14 10:14:15;;;;;;;1;0.8;;;;;;;29.3;35.21484;936.6662;;;;
2020/07/14 10:16:41;;;;;;;2.4;0.7;;;;;;;29.26;37.62891;936.6436;;;;
2020/07/14 10:19:08;;;;;;;1;0.8;;;;;;;28.86;34.06152;936.6481;;;;
2020/07/14 10:21:34;;;;;;;1.3;0.7;;;;;;;28.46;34.7207;936.6409;;;;
2020/07/14 10:23:59;;;;;;;1.4;0.8;;;;;;;27.81;35.03906;936.6417;;;;
2020/07/14 10:26:28;;;;;;;2.7;1;;;;;;;27.31;36.79102;936.6523;;;;
2020/07/14 10:28:52;;;;;;;1.5;1;;;;;;;26.99;36.43262;936.5953;;;;
2020/07/14 10:31:21;;;;;;;4.6;1;;;;;;;26.83;37.88965;936.6141;;;;
2020/07/14 10:33:46;;;;;;;1.8;0.8;;;;;;;26.84;39.25293;936.5661;;;;
2020/07/14 10:36:11;;;;;;;2.7;0.8;;;;;;;27.48;38.40723;936.5189;;;;
2020/07/14 10:38:36;;;;;;;1.3;0.8;;;;;;;28.11;36.28613;936.5167;;;;
2020/07/14 10:41:06;;;;;;;1.6;1;;;;;;;28.69;36.58301;936.5697;;;;
2020/07/14 10:43:32;;;;;;;2;1;;;;;;;29.18;35.32422;936.5525;;;;
2020/07/14 10:45:58;;;;;;;3.2;0.7;;;;;;;29.49;35.98047;936.5;;;;
2020/07/14 10:48:23;;;;;;;1.5;0.7;;;;;;;29.49;34.27539;936.5213;;;;
2020/07/14 10:50:48;;;;;;;2.2;0.9;;;;;;;28.94;34.41309;936.5012;;;;
2020/07/14 10:53:15;;;;;;;2.3;0.9;;;;;;;28.18;35.26953;936.5182;;;;
2020/07/14 10:55:40;;;;;;;4;1.1;;;;;;;27.84;36.82324;936.5302;;;;
2020/07/14 10:58:07;;;;;;;1.3;0.8;;;;;;;27.07;36.51074;936.5392;;;;
2020/07/14 11:00:33;;;;;;;2.7;0.9;;;;;;;26.96;37.40234;936.5114;;;;
2020/07/14 11:02:59;;;;;;;3.7;1.1;;;;;;;26.8;37.53125;936.5214;;;;
2020/07/14 11:05:24;;;;;;;2.7;1.1;;;;;;;26.25;37.2959;936.4753;;;;
2020/07/14 11:07:51;;;;;;;3.7;1.2;;;;;;;26.17;38.37695;936.4484;;;;
2020/07/14 11:10:21;;;;;;;2.3;0.9;;;;;;;26.2;40.69922;936.4733;;;;
2020/07/14 11:12:49;;;;;;;2.1;0.9;;;;;;;26.73;39.89355;936.4073;;;;
2020/07/14 11:15:17;;;;;;;2.2;0.8;;;;;;;27.22;37.68457;936.3904;;;;
2020/07/14 11:17:46;;;;;;;2.1;1;;;;;;;27.54;37.40332;936.3022;;;;
2020/07/14 11:20:14;;;;;;;1.4;0.8;;;;;;;27.81;37.63965;936.2994;;;;
2020/07/14 11:22:39;;;;;;;1.2;0.9;;;;;;;27.92;38.55176;936.302;;;;
2020/07/14 11:25:05;;;;;;;147;57.6;;;;;;;27.95;37.84082;936.3267;;;;
2020/07/14 11:27:32;;;;;;;60.5;24.9;;;;;;;27.93;36.23633;936.2719;;;;
2020/07/14 11:29:57;;;;;;;4.8;2.1;;;;;;;28.01;37.3125;936.2086;;;;
2020/07/14 11:32:25;;;;;;;4;1.6;;;;;;;28.07;37.70898;936.253;;;;
2020/07/14 11:34:50;;;;;;;2.5;1.2;;;;;;;28.18;37.39746;936.2058;;;;
2020/07/14 11:37:15;;;;;;;5.5;1.7;;;;;;;28.32;36.85059;936.2263;;;;
2020/07/14 11:39:43;;;;;;;3.3;1.7;;;;;;;28.37;35.92773;936.205;;;;
2020/07/14 11:42:08;;;;;;;5.6;2.1;;;;;;;28.51;34.72461;936.1717;;;;
2020/07/14 11:44:33;;;;;;;4.8;2;;;;;;;28.41;36.52441;936.1622;;;;
2020/07/14 11:46:58;;;;;;;4.3;1.9;;;;;;;28.02;34.66309;936.0881;;;;
2020/07/14 11:49:25;;;;;;;2;0.9;;;;;;;27.64;36.64063;936.0837;;;;
2020/07/14 11:51:50;;;;;;;2.8;1;;;;;;;27.27;37.04883;936.1563;;;;
2020/07/14 11:54:15;;;;;;;2.9;1.3;;;;;;;27.05;36.74512;936.0647;;;;
2020/07/14 11:56:41;;;;;;;2.9;1.2;;;;;;;27.08;36.59473;936.0627;;;;
2020/07/14 11:59:06;;;;;;;5.1;1.6;;;;;;;27.3;38.31934;936.0765;;;;
2020/07/14 12:01:31;;;;;;;3;1.3;;;;;;;27.57;35.78027;936.0323;;;;
2020/07/14 12:03:56;;;;;;;2.9;1.1;;;;;;;27.86;37.82227;935.9855;;;;
2020/07/14 12:06:21;;;;;;;2.7;0.8;;;;;;;28.1;36.74805;935.9386;;;;
2020/07/14 12:08:47;;;;;;;1.8;1.1;;;;;;;28.24;37.21191;935.9001;;;;
2020/07/14 12:11:15;;;;;;;2.6;1;;;;;;;28.25;38.00879;935.9048;;;;
2020/07/14 12:13:40;;;;;;;3.4;1.1;;;;;;;27.96;37.99609;935.8356;;;;
2020/07/14 12:16:05;;;;;;;2.5;1.1;;;;;;;27.86;39.10352;935.8049;;;;
2020/07/14 12:18:32;;;;;;;1.2;0.8;;;;;;;27.57;36.82422;935.8331;;;;
2020/07/14 12:20:57;;;;;;;3.9;1;;;;;;;27.62;35.82031;935.8562;;;;
2020/07/14 12:23:23;;;;;;;1.6;0.9;;;;;;;27.8;36.51074;935.8256;;;;
2020/07/14 12:25:49;;;;;;;3.1;1;;;;;;;27.81;36.71289;935.8544;;;;
2020/07/14 12:28:14;;;;;;;4.8;1.4;;;;;;;27.64;37.15039;935.7933;;;;
2020/07/14 12:30:42;;;;;;;2.1;0.9;;;;;;;27.5;36.94922;935.8699;;;;
2020/07/14 12:33:07;;;;;;;3.1;1;;;;;;;27.16;35.29688;935.8904;;;;
2020/07/14 12:35:33;;;;;;;5.3;1.1;;;;;;;27.03;36.57813;935.8978;;;;
2020/07/14 12:37:58;;;;;;;2.4;1.1;;;;;;;26.72;36.30469;935.8837;;;;
2020/07/14 12:40:30;;;;;;;2.3;1.1;;;;;;;26.31;37.14746;935.8691;;;;
2020/07/14 12:42:55;;;;;;;2.2;1.1;;;;;;;26.32;38.40332;935.8816;;;;
2020/07/14 12:45:31;;;;;;;3.4;1;;;;;;;26.44;38.60254;935.8528;;;;
2020/07/14 12:47:57;;;;;;;2.7;1.1;;;;;;;26.65;39.66211;935.776;;;;
2020/07/14 12:50:22;;;;;;;2;1;;;;;;;26.89;39.15039;935.8139;;;;
2020/07/14 12:52:49;;;;;;;1.2;0.9;;;;;;;27.26;39.65625;935.7843;;;;
2020/07/14 12:55:13;;;;;;;5.1;1;;;;;;;27.66;39.50195;935.7734;;;;
2020/07/14 12:57:40;;;;;;;3.4;1.2;;;;;;;28.03;38.37109;935.7525;;;;
2020/07/14 13:00:05;;;;;;;4.7;1.2;;;;;;;28.28;38.08301;935.7092;;;;
2020/07/14 13:02:30;;;;;;;3.9;1;;;;;;;28.24;37.12793;935.7115;;;;
2020/07/14 13:04:56;;;;;;;1.5;1;;;;;;;28.36;37.1748;935.7169;;;;
2020/07/14 13:07:21;;;;;;;2.5;0.8;;;;;;;28.4;35.89258;935.6369;;;;
2020/07/14 13:09:46;;;;;;;3.7;0.9;;;;;;;28.32;36.67188;935.6841;;;;
2020/07/14 13:12:12;;;;;;;2;1;;;;;;;27.99;35.86035;935.6323;;;;
2020/07/14 13:14:37;;;;;;;2.1;0.9;;;;;;;27.88;37.01563;935.6576;;;;
2020/07/14 13:17:03;;;;;;;4.6;1.1;;;;;;;27.5;36.27246;935.6361;;;;
2020/07/14 13:19:28;;;;;;;3.6;0.8;;;;;;;27.27;35.73242;935.7029;;;;
2020/07/14 13:21:54;;;;;;;3;1;;;;;;;26.64;36.53418;935.6606;;;;
2020/07/14 13:24:19;;;;;;;2.6;0.9;;;;;;;26.65;37.55469;935.6532;;;;
2020/07/14 13:26:45;;;;;;;1.4;1;;;;;;;26.77;38.64258;935.5818;;;;
2020/07/14 13:29:10;;;;;;;4.6;1;;;;;;;26.8;41.12109;935.6415;;;;
2020/07/14 13:31:37;;;;;;;3.6;1.1;;;;;;;27.02;40.73828;935.6228;;;;
2020/07/14 13:34:02;;;;;;;4.1;1.1;;;;;;;27.2;40.03027;935.6316;;;;
2020/07/14 13:36:30;;;;;;;2.7;0.9;;;;;;;27.16;36.31641;935.5637;;;;
2020/07/14 13:38:55;;;;;;;3.3;1;;;;;;;27.32;39.31836;935.5723;;;;
2020/07/14 13:41:21;;;;;;;6;1.3;;;;;;;27.41;35.4834;935.5894;;;;
2020/07/14 13:43:46;;;;;;;3.1;1.2;;;;;;;27.45;38.22559;935.5812;;;;
2020/07/14 13:46:11;;;;;;;2.6;1;;;;;;;27.29;37.08594;935.507;;;;
2020/07/14 13:48:36;;;;;;;4.7;1.3;;;;;;;26.76;37.88281;935.5383;;;;
2020/07/14 13:51:01;;;;;;;2.5;1.4;;;;;;;26.59;39.0293;935.5594;;;;
2020/07/14 13:53:26;;;;;;;2.6;1.4;;;;;;;26.34;40.45117;935.515;;;;
2020/07/14 13:55:52;;;;;;;1.8;1.2;;;;;;;26.27;39.30957;935.5173;;;;
2020/07/14 13:58:17;;;;;;;3.1;1.1;;;;;;;26.03;40.36328;935.6027;;;;
2020/07/14 14:00:49;;;;;;;3;1.2;;;;;;;25.87;39.04883;935.5656;;;;
2020/07/14 14:03:14;;;;;;;2.3;1.3;;;;;;;25.91;39.92871;935.6479;;;;
2020/07/14 14:05:40;;;;;;;3.1;1.3;;;;;;;26.03;39.51367;935.574;;;;
2020/07/14 14:08:07;;;;;;;4.2;1.6;;;;;;;26.08;39.43359;935.5569;;;;
2020/07/14 14:10:32;;;;;;;3;1.2;;;;;;;26.11;40.41895;935.5584;;;;
2020/07/14 14:12:57;;;;;;;3.2;1.3;;;;;;;26.13;39.87598;935.5156;;;;
2020/07/14 14:15:28;;;;;;;2.7;1;;;;;;;26.01;38.71875;935.5686;;;;
2020/07/14 14:17:54;;;;;;;3.4;1.1;;;;;;;25.89;38.89746;935.5577;;;;
2020/07/14 14:20:19;;;;;;;1.8;1.1;;;;;;;25.77;38.20215;935.5402;;;;
2020/07/14 14:22:44;;;;;;;2.8;1.1;;;;;;;26.14;40.62305;935.5437;;;;
2020/07/14 14:25:09;;;;;;;3.9;1.2;;;;;;;26.21;40.91309;935.525;;;;
2020/07/14 14:30:00;;;;;;;2;1;;;;;;;26.28;40.77734;935.5011;;;;